sensor_id;sensor_type;location;lat;lon;timestamp;P1;durP1;ratioP1;P2;durP2;ratioP2
48552;SDS011;34335;51.566;6.994;2022-08-21T00:00:33;9.52;;;3.38;;
48552;SDS011;34335;51.566;6.994;2022-08-21T00:03:00;5.95;;;3.17;;
48552;SDS011;34335;51.566;6.994;2022-08-21T00:05:27;9.65;;;2.95;;
48552;SDS011;34335;51.566;6.994;2022-08-21T00:07:53;5.80;;;2.40;;
48552;SDS011;34335;51.566;6.994;2022-08-21T00:10:19;4.95;;;2.83;;
48552;SDS011;34335;51.566;6.994;2022-08-21T00:12:45;13.48;;;3.38;;
48552;SDS011;34335;51.566;6.994;2022-08-21T00:15:12;8.40;;;3.88;;
48552;SDS011;34335;51.566;6.994;2022-08-21T00:17:41;6.88;;;2.67;;
48552;SDS011;34335;51.566;6.994;2022-08-21T00:20:08;7.32;;;2.78;;
48552;SDS011;34335;51.566;6.994;2022-08-21T00:22:35;6.53;;;2.63;;
48552;SDS011;34335;51.566;6.994;2022-08-21T00:25:02;7.28;;;2.80;;
48552;SDS011;34335;51.566;6.994;2022-08-21T00:27:29;6.43;;;2.85;;
48552;SDS011;34335;51.566;6.994;2022-08-21T00:29:54;9.93;;;3.30;;
48552;SDS011;34335;51.566;6.994;2022-08-21T00:32:24;6.90;;;3.20;;
48552;SDS011;34335;51.566;6.994;2022-08-21T00:34:51;8.15;;;3.10;;
48552;SDS011;34335;51.566;6.994;2022-08-21T00:37:17;7.93;;;3.45;;
48552;SDS011;34335;51.566;6.994;2022-08-21T00:39:43;10.18;;;3.53;;
48552;SDS011;34335;51.566;6.994;2022-08-21T00:42:10;6.20;;;3.25;;
48552;SDS011;34335;51.566;6.994;2022-08-21T00:44:39;7.60;;;3.35;;
48552;SDS011;34335;51.566;6.994;2022-08-21T00:47:08;8.02;;;3.40;;
48552;SDS011;34335;51.566;6.994;2022-08-21T00:49:35;6.00;;;3.22;;
48552;SDS011;34335;51.566;6.994;2022-08-21T00:52:00;5.28;;;3.25;;
48552;SDS011;34335;51.566;6.994;2022-08-21T00:54:27;6.72;;;3.00;;
48552;SDS011;34335;51.566;6.994;2022-08-21T00:56:57;6.20;;;3.10;;
48552;SDS011;34335;51.566;6.994;2022-08-21T00:59:25;11.48;;;3.75;;
48552;SDS011;34335;51.566;6.994;2022-08-21T01:01:52;10.85;;;3.88;;
48552;SDS011;34335;51.566;6.994;2022-08-21T01:04:19;6.85;;;3.13;;
48552;SDS011;34335;51.566;6.994;2022-08-21T01:06:45;7.93;;;3.28;;
48552;SDS011;34335;51.566;6.994;2022-08-21T01:09:11;7.40;;;3.33;;
48552;SDS011;34335;51.566;6.994;2022-08-21T01:11:37;6.53;;;3.03;;
48552;SDS011;34335;51.566;6.994;2022-08-21T01:14:02;8.65;;;3.17;;
48552;SDS011;34335;51.566;6.994;2022-08-21T01:16:28;7.80;;;3.20;;
48552;SDS011;34335;51.566;6.994;2022-08-21T01:18:54;5.63;;;2.78;;
48552;SDS011;34335;51.566;6.994;2022-08-21T01:21:24;6.07;;;3.10;;
48552;SDS011;34335;51.566;6.994;2022-08-21T01:23:51;5.97;;;3.22;;
48552;SDS011;34335;51.566;6.994;2022-08-21T01:26:20;6.38;;;3.03;;
48552;SDS011;34335;51.566;6.994;2022-08-21T01:28:51;8.10;;;3.25;;
48552;SDS011;34335;51.566;6.994;2022-08-21T01:31:35;10.23;;;3.20;;
48552;SDS011;34335;51.566;6.994;2022-08-21T01:34:02;7.82;;;3.10;;
48552;SDS011;34335;51.566;6.994;2022-08-21T01:36:28;8.27;;;3.00;;
48552;SDS011;34335;51.566;6.994;2022-08-21T01:38:54;8.82;;;3.47;;
48552;SDS011;34335;51.566;6.994;2022-08-21T01:41:20;11.48;;;3.28;;
48552;SDS011;34335;51.566;6.994;2022-08-21T01:43:45;8.50;;;3.22;;
48552;SDS011;34335;51.566;6.994;2022-08-21T01:46:12;5.70;;;3.38;;
48552;SDS011;34335;51.566;6.994;2022-08-21T01:48:37;8.38;;;3.33;;
48552;SDS011;34335;51.566;6.994;2022-08-21T01:51:03;6.03;;;2.67;;
48552;SDS011;34335;51.566;6.994;2022-08-21T01:53:29;6.45;;;2.67;;
48552;SDS011;34335;51.566;6.994;2022-08-21T01:55:55;6.60;;;3.33;;
48552;SDS011;34335;51.566;6.994;2022-08-21T01:58:20;8.32;;;3.05;;
48552;SDS011;34335;51.566;6.994;2022-08-21T02:00:45;7.53;;;2.97;;
48552;SDS011;34335;51.566;6.994;2022-08-21T02:03:11;7.22;;;2.97;;
48552;SDS011;34335;51.566;6.994;2022-08-21T02:05:36;8.45;;;2.95;;
48552;SDS011;34335;51.566;6.994;2022-08-21T02:08:02;8.23;;;3.20;;
48552;SDS011;34335;51.566;6.994;2022-08-21T02:10:29;6.07;;;2.97;;
48552;SDS011;34335;51.566;6.994;2022-08-21T02:12:57;6.35;;;2.90;;
48552;SDS011;34335;51.566;6.994;2022-08-21T02:15:24;6.38;;;3.28;;
48552;SDS011;34335;51.566;6.994;2022-08-21T02:17:51;7.35;;;2.50;;
48552;SDS011;34335;51.566;6.994;2022-08-21T02:20:21;7.63;;;3.10;;
48552;SDS011;34335;51.566;6.994;2022-08-21T02:22:50;6.82;;;3.20;;
48552;SDS011;34335;51.566;6.994;2022-08-21T02:25:17;9.57;;;3.00;;
48552;SDS011;34335;51.566;6.994;2022-08-21T02:27:43;6.50;;;2.95;;
48552;SDS011;34335;51.566;6.994;2022-08-21T02:30:13;7.82;;;3.05;;
48552;SDS011;34335;51.566;6.994;2022-08-21T02:32:40;8.70;;;3.45;;
48552;SDS011;34335;51.566;6.994;2022-08-21T02:35:07;7.88;;;3.08;;
48552;SDS011;34335;51.566;6.994;2022-08-21T02:37:34;6.20;;;3.15;;
48552;SDS011;34335;51.566;6.994;2022-08-21T02:40:07;5.32;;;2.95;;
48552;SDS011;34335;51.566;6.994;2022-08-21T02:42:34;6.80;;;3.15;;
48552;SDS011;34335;51.566;6.994;2022-08-21T02:45:00;6.82;;;3.10;;
48552;SDS011;34335;51.566;6.994;2022-08-21T02:47:25;7.90;;;3.27;;
48552;SDS011;34335;51.566;6.994;2022-08-21T02:49:51;10.45;;;3.50;;
48552;SDS011;34335;51.566;6.994;2022-08-21T02:52:17;7.07;;;3.20;;
48552;SDS011;34335;51.566;6.994;2022-08-21T02:54:42;6.63;;;3.25;;
48552;SDS011;34335;51.566;6.994;2022-08-21T02:57:07;5.93;;;2.97;;
48552;SDS011;34335;51.566;6.994;2022-08-21T02:59:33;7.72;;;3.90;;
48552;SDS011;34335;51.566;6.994;2022-08-21T03:01:58;9.02;;;3.05;;
48552;SDS011;34335;51.566;6.994;2022-08-21T03:04:23;6.40;;;3.47;;
48552;SDS011;34335;51.566;6.994;2022-08-21T03:06:49;6.67;;;3.57;;
48552;SDS011;34335;51.566;6.994;2022-08-21T03:09:14;8.53;;;3.20;;
48552;SDS011;34335;51.566;6.994;2022-08-21T03:11:39;9.27;;;3.37;;
48552;SDS011;34335;51.566;6.994;2022-08-21T03:14:04;10.30;;;3.70;;
48552;SDS011;34335;51.566;6.994;2022-08-21T03:16:30;6.17;;;3.63;;
48552;SDS011;34335;51.566;6.994;2022-08-21T03:18:55;6.47;;;3.00;;
48552;SDS011;34335;51.566;6.994;2022-08-21T03:21:20;10.40;;;3.57;;
48552;SDS011;34335;51.566;6.994;2022-08-21T03:23:46;9.07;;;3.60;;
48552;SDS011;34335;51.566;6.994;2022-08-21T03:26:11;8.38;;;3.83;;
48552;SDS011;34335;51.566;6.994;2022-08-21T03:28:37;6.88;;;3.55;;
48552;SDS011;34335;51.566;6.994;2022-08-21T03:31:03;7.75;;;3.15;;
48552;SDS011;34335;51.566;6.994;2022-08-21T03:33:28;17.42;;;3.63;;
48552;SDS011;34335;51.566;6.994;2022-08-21T03:35:56;7.13;;;3.50;;
48552;SDS011;34335;51.566;6.994;2022-08-21T03:38:26;6.35;;;2.85;;
48552;SDS011;34335;51.566;6.994;2022-08-21T03:40:53;8.43;;;3.28;;
48552;SDS011;34335;51.566;6.994;2022-08-21T03:43:18;5.65;;;2.97;;
48552;SDS011;34335;51.566;6.994;2022-08-21T03:45:44;6.30;;;2.90;;
48552;SDS011;34335;51.566;6.994;2022-08-21T03:48:09;6.38;;;3.38;;
48552;SDS011;34335;51.566;6.994;2022-08-21T03:50:36;7.43;;;3.30;;
48552;SDS011;34335;51.566;6.994;2022-08-21T03:53:04;6.57;;;3.13;;
48552;SDS011;34335;51.566;6.994;2022-08-21T03:55:29;5.93;;;3.20;;
48552;SDS011;34335;51.566;6.994;2022-08-21T03:57:55;4.43;;;3.35;;
48552;SDS011;34335;51.566;6.994;2022-08-21T04:00:21;8.05;;;3.00;;
48552;SDS011;34335;51.566;6.994;2022-08-21T04:02:47;6.38;;;3.00;;
48552;SDS011;34335;51.566;6.994;2022-08-21T04:05:13;6.47;;;3.47;;
48552;SDS011;34335;51.566;6.994;2022-08-21T04:07:51;7.18;;;3.40;;
48552;SDS011;34335;51.566;6.994;2022-08-21T04:10:17;5.35;;;3.15;;
48552;SDS011;34335;51.566;6.994;2022-08-21T04:12:42;8.40;;;3.58;;
48552;SDS011;34335;51.566;6.994;2022-08-21T04:15:08;7.23;;;2.90;;
48552;SDS011;34335;51.566;6.994;2022-08-21T04:17:33;6.63;;;3.22;;
48552;SDS011;34335;51.566;6.994;2022-08-21T04:19:59;7.88;;;3.60;;
48552;SDS011;34335;51.566;6.994;2022-08-21T04:22:25;8.90;;;3.45;;
48552;SDS011;34335;51.566;6.994;2022-08-21T04:24:50;8.30;;;4.00;;
48552;SDS011;34335;51.566;6.994;2022-08-21T04:27:15;7.77;;;3.50;;
48552;SDS011;34335;51.566;6.994;2022-08-21T04:29:41;11.47;;;3.60;;
48552;SDS011;34335;51.566;6.994;2022-08-21T04:32:06;13.77;;;4.20;;
48552;SDS011;34335;51.566;6.994;2022-08-21T04:34:31;5.30;;;2.80;;
48552;SDS011;34335;51.566;6.994;2022-08-21T04:36:56;7.40;;;3.07;;
48552;SDS011;34335;51.566;6.994;2022-08-21T04:39:22;13.30;;;5.23;;
48552;SDS011;34335;51.566;6.994;2022-08-21T04:41:47;10.57;;;4.60;;
48552;SDS011;34335;51.566;6.994;2022-08-21T04:44:12;13.63;;;5.80;;
48552;SDS011;34335;51.566;6.994;2022-08-21T04:46:37;10.87;;;4.53;;
48552;SDS011;34335;51.566;6.994;2022-08-21T04:49:03;12.33;;;5.70;;
48552;SDS011;34335;51.566;6.994;2022-08-21T04:51:29;18.30;;;5.70;;
48552;SDS011;34335;51.566;6.994;2022-08-21T04:56:33;14.70;;;5.87;;
48552;SDS011;34335;51.566;6.994;2022-08-21T04:59:02;11.02;;;5.15;;
48552;SDS011;34335;51.566;6.994;2022-08-21T05:01:32;15.13;;;5.38;;
48552;SDS011;34335;51.566;6.994;2022-08-21T05:04:00;13.07;;;6.20;;
48552;SDS011;34335;51.566;6.994;2022-08-21T05:06:29;13.65;;;4.93;;
48552;SDS011;34335;51.566;6.994;2022-08-21T05:08:58;29.70;;;6.30;;
48552;SDS011;34335;51.566;6.994;2022-08-21T05:11:24;10.20;;;5.35;;
48552;SDS011;34335;51.566;6.994;2022-08-21T05:13:50;10.93;;;5.90;;
48552;SDS011;34335;51.566;6.994;2022-08-21T05:16:15;10.90;;;6.18;;
48552;SDS011;34335;51.566;6.994;2022-08-21T05:18:41;12.10;;;6.35;;
48552;SDS011;34335;51.566;6.994;2022-08-21T05:21:06;10.38;;;6.70;;
48552;SDS011;34335;51.566;6.994;2022-08-21T05:23:31;9.27;;;6.32;;
48552;SDS011;34335;51.566;6.994;2022-08-21T05:25:57;11.80;;;6.30;;
48552;SDS011;34335;51.566;6.994;2022-08-21T05:28:23;13.43;;;7.93;;
48552;SDS011;34335;51.566;6.994;2022-08-21T05:30:48;12.25;;;6.90;;
48552;SDS011;34335;51.566;6.994;2022-08-21T05:33:14;15.82;;;7.25;;
48552;SDS011;34335;51.566;6.994;2022-08-21T05:35:39;12.00;;;7.15;;
48552;SDS011;34335;51.566;6.994;2022-08-21T05:38:05;14.15;;;8.45;;
48552;SDS011;34335;51.566;6.994;2022-08-21T05:40:31;16.65;;;8.43;;
48552;SDS011;34335;51.566;6.994;2022-08-21T05:42:57;12.93;;;8.65;;
48552;SDS011;34335;51.566;6.994;2022-08-21T05:45:25;14.98;;;8.25;;
48552;SDS011;34335;51.566;6.994;2022-08-21T05:47:53;18.95;;;8.77;;
48552;SDS011;34335;51.566;6.994;2022-08-21T05:50:19;13.63;;;7.95;;
48552;SDS011;34335;51.566;6.994;2022-08-21T05:52:44;15.15;;;8.68;;
48552;SDS011;34335;51.566;6.994;2022-08-21T05:55:10;13.97;;;7.90;;
48552;SDS011;34335;51.566;6.994;2022-08-21T05:57:35;11.20;;;7.20;;
48552;SDS011;34335;51.566;6.994;2022-08-21T06:00:00;11.10;;;7.38;;
48552;SDS011;34335;51.566;6.994;2022-08-21T06:02:26;11.95;;;7.90;;
48552;SDS011;34335;51.566;6.994;2022-08-21T06:04:51;13.47;;;8.33;;
48552;SDS011;34335;51.566;6.994;2022-08-21T06:07:17;12.20;;;8.02;;
48552;SDS011;34335;51.566;6.994;2022-08-21T06:09:42;11.02;;;7.10;;
48552;SDS011;34335;51.566;6.994;2022-08-21T06:12:08;14.53;;;7.47;;
48552;SDS011;34335;51.566;6.994;2022-08-21T06:14:36;15.43;;;7.97;;
48552;SDS011;34335;51.566;6.994;2022-08-21T06:17:06;11.98;;;7.30;;
48552;SDS011;34335;51.566;6.994;2022-08-21T06:19:32;15.32;;;7.35;;
48552;SDS011;34335;51.566;6.994;2022-08-21T06:21:58;54.10;;;10.18;;
48552;SDS011;34335;51.566;6.994;2022-08-21T06:24:24;36.75;;;9.15;;
48552;SDS011;34335;51.566;6.994;2022-08-21T06:26:49;45.38;;;12.02;;
48552;SDS011;34335;51.566;6.994;2022-08-21T06:29:14;12.40;;;7.40;;
48552;SDS011;34335;51.566;6.994;2022-08-21T06:31:44;22.48;;;8.48;;
48552;SDS011;34335;51.566;6.994;2022-08-21T06:34:10;25.55;;;7.82;;
48552;SDS011;34335;51.566;6.994;2022-08-21T06:36:35;14.77;;;6.88;;
48552;SDS011;34335;51.566;6.994;2022-08-21T06:39:01;16.05;;;7.22;;
48552;SDS011;34335;51.566;6.994;2022-08-21T06:41:26;15.23;;;7.35;;
48552;SDS011;34335;51.566;6.994;2022-08-21T06:43:52;11.85;;;7.15;;
48552;SDS011;34335;51.566;6.994;2022-08-21T06:46:18;14.82;;;7.35;;
48552;SDS011;34335;51.566;6.994;2022-08-21T06:48:43;15.65;;;7.22;;
48552;SDS011;34335;51.566;6.994;2022-08-21T06:51:09;14.10;;;6.70;;
48552;SDS011;34335;51.566;6.994;2022-08-21T06:53:34;11.88;;;6.78;;
48552;SDS011;34335;51.566;6.994;2022-08-21T06:56:00;12.82;;;7.18;;
48552;SDS011;34335;51.566;6.994;2022-08-21T06:58:25;12.05;;;7.22;;
48552;SDS011;34335;51.566;6.994;2022-08-21T07:00:51;10.87;;;6.50;;
48552;SDS011;34335;51.566;6.994;2022-08-21T07:03:18;8.55;;;5.38;;
48552;SDS011;34335;51.566;6.994;2022-08-21T07:05:45;11.10;;;6.18;;
48552;SDS011;34335;51.566;6.994;2022-08-21T07:08:10;12.13;;;6.43;;
48552;SDS011;34335;51.566;6.994;2022-08-21T07:10:36;10.87;;;5.47;;
48552;SDS011;34335;51.566;6.994;2022-08-21T07:13:01;12.57;;;6.47;;
48552;SDS011;34335;51.566;6.994;2022-08-21T07:15:29;8.17;;;5.50;;
48552;SDS011;34335;51.566;6.994;2022-08-21T07:17:55;12.00;;;5.97;;
48552;SDS011;34335;51.566;6.994;2022-08-21T07:20:21;12.43;;;6.93;;
48552;SDS011;34335;51.566;6.994;2022-08-21T07:22:46;11.87;;;5.03;;
48552;SDS011;34335;51.566;6.994;2022-08-21T07:25:11;9.90;;;5.50;;
48552;SDS011;34335;51.566;6.994;2022-08-21T07:27:37;11.10;;;6.25;;
48552;SDS011;34335;51.566;6.994;2022-08-21T07:30:03;12.50;;;5.47;;
48552;SDS011;34335;51.566;6.994;2022-08-21T07:32:29;10.07;;;4.55;;
48552;SDS011;34335;51.566;6.994;2022-08-21T07:34:55;8.75;;;4.88;;
48552;SDS011;34335;51.566;6.994;2022-08-21T07:37:20;11.33;;;4.17;;
48552;SDS011;34335;51.566;6.994;2022-08-21T07:39:45;8.70;;;4.37;;
48552;SDS011;34335;51.566;6.994;2022-08-21T07:42:13;6.60;;;3.65;;
48552;SDS011;34335;51.566;6.994;2022-08-21T07:44:39;8.90;;;3.42;;
48552;SDS011;34335;51.566;6.994;2022-08-21T07:47:04;6.57;;;3.67;;
48552;SDS011;34335;51.566;6.994;2022-08-21T07:49:30;8.98;;;3.75;;
48552;SDS011;34335;51.566;6.994;2022-08-21T07:51:55;7.25;;;3.72;;
48552;SDS011;34335;51.566;6.994;2022-08-21T07:54:21;9.10;;;3.17;;
48552;SDS011;34335;51.566;6.994;2022-08-21T07:56:46;7.53;;;3.53;;
48552;SDS011;34335;51.566;6.994;2022-08-21T07:59:12;9.00;;;4.53;;
48552;SDS011;34335;51.566;6.994;2022-08-21T08:01:37;8.52;;;4.05;;
48552;SDS011;34335;51.566;6.994;2022-08-21T08:04:03;10.52;;;2.83;;
48552;SDS011;34335;51.566;6.994;2022-08-21T08:06:29;5.63;;;2.70;;
48552;SDS011;34335;51.566;6.994;2022-08-21T08:08:55;10.15;;;2.47;;
48552;SDS011;34335;51.566;6.994;2022-08-21T08:11:21;4.93;;;2.47;;
48552;SDS011;34335;51.566;6.994;2022-08-21T08:13:49;8.23;;;2.78;;
48552;SDS011;34335;51.566;6.994;2022-08-21T08:16:16;7.20;;;2.63;;
48552;SDS011;34335;51.566;6.994;2022-08-21T08:18:42;6.20;;;2.95;;
48552;SDS011;34335;51.566;6.994;2022-08-21T08:21:07;6.90;;;2.67;;
48552;SDS011;34335;51.566;6.994;2022-08-21T08:23:34;9.43;;;2.20;;
48552;SDS011;34335;51.566;6.994;2022-08-21T08:26:00;6.40;;;2.40;;
48552;SDS011;34335;51.566;6.994;2022-08-21T08:28:27;7.65;;;2.85;;
48552;SDS011;34335;51.566;6.994;2022-08-21T08:30:54;6.93;;;2.50;;
48552;SDS011;34335;51.566;6.994;2022-08-21T08:33:20;6.60;;;2.00;;
48552;SDS011;34335;51.566;6.994;2022-08-21T08:35:46;6.88;;;2.78;;
48552;SDS011;34335;51.566;6.994;2022-08-21T08:38:14;7.72;;;2.55;;
48552;SDS011;34335;51.566;6.994;2022-08-21T08:40:46;6.00;;;2.60;;
48552;SDS011;34335;51.566;6.994;2022-08-21T08:43:20;5.40;;;2.25;;
48552;SDS011;34335;51.566;6.994;2022-08-21T08:45:48;6.55;;;1.75;;
48552;SDS011;34335;51.566;6.994;2022-08-21T08:48:21;2.88;;;1.52;;
48552;SDS011;34335;51.566;6.994;2022-08-21T08:53:33;7.00;;;1.75;;
48552;SDS011;34335;51.566;6.994;2022-08-21T08:56:09;3.55;;;1.48;;
48552;SDS011;34335;51.566;6.994;2022-08-21T08:58:40;4.55;;;1.40;;
48552;SDS011;34335;51.566;6.994;2022-08-21T09:01:18;5.20;;;1.52;;
48552;SDS011;34335;51.566;6.994;2022-08-21T09:03:45;6.53;;;1.73;;
48552;SDS011;34335;51.566;6.994;2022-08-21T09:09:18;7.38;;;1.70;;
48552;SDS011;34335;51.566;6.994;2022-08-21T09:12:02;5.03;;;1.50;;
48552;SDS011;34335;51.566;6.994;2022-08-21T09:14:38;3.58;;;1.17;;
48552;SDS011;34335;51.566;6.994;2022-08-21T09:17:15;6.85;;;1.58;;
48552;SDS011;34335;51.566;6.994;2022-08-21T09:19:53;4.18;;;1.30;;
48552;SDS011;34335;51.566;6.994;2022-08-21T09:25:13;4.43;;;1.40;;
48552;SDS011;34335;51.566;6.994;2022-08-21T09:27:44;4.63;;;1.35;;
48552;SDS011;34335;51.566;6.994;2022-08-21T09:30:10;2.78;;;1.45;;
48552;SDS011;34335;51.566;6.994;2022-08-21T09:32:37;2.85;;;1.00;;
48552;SDS011;34335;51.566;6.994;2022-08-21T09:35:17;2.65;;;1.20;;
48552;SDS011;34335;51.566;6.994;2022-08-21T09:40:38;5.20;;;1.70;;
48552;SDS011;34335;51.566;6.994;2022-08-21T09:45:34;3.57;;;0.90;;
48552;SDS011;34335;51.566;6.994;2022-08-21T09:50:47;3.33;;;0.80;;
48552;SDS011;34335;51.566;6.994;2022-08-21T09:53:16;3.75;;;1.20;;
48552;SDS011;34335;51.566;6.994;2022-08-21T09:55:54;3.10;;;1.08;;
48552;SDS011;34335;51.566;6.994;2022-08-21T09:58:41;5.03;;;1.30;;
48552;SDS011;34335;51.566;6.994;2022-08-21T10:01:14;6.50;;;1.02;;
48552;SDS011;34335;51.566;6.994;2022-08-21T10:03:47;6.22;;;1.30;;
48552;SDS011;34335;51.566;6.994;2022-08-21T10:06:24;4.32;;;1.05;;
48552;SDS011;34335;51.566;6.994;2022-08-21T10:09:03;2.83;;;1.08;;
48552;SDS011;34335;51.566;6.994;2022-08-21T10:11:31;3.08;;;1.55;;
48552;SDS011;34335;51.566;6.994;2022-08-21T10:19:43;2.65;;;1.00;;
48552;SDS011;34335;51.566;6.994;2022-08-21T10:25:48;4.20;;;1.50;;
48552;SDS011;34335;51.566;6.994;2022-08-21T10:39:47;3.67;;;1.33;;
48552;SDS011;34335;51.566;6.994;2022-08-21T10:42:43;3.63;;;1.13;;
48552;SDS011;34335;51.566;6.994;2022-08-21T10:48:07;3.22;;;0.90;;
48552;SDS011;34335;51.566;6.994;2022-08-21T10:50:42;2.80;;;0.80;;
48552;SDS011;34335;51.566;6.994;2022-08-21T10:55:41;7.37;;;1.10;;
48552;SDS011;34335;51.566;6.994;2022-08-21T10:58:14;2.25;;;0.85;;
48552;SDS011;34335;51.566;6.994;2022-08-21T11:00:50;5.90;;;1.27;;
48552;SDS011;34335;51.566;6.994;2022-08-21T11:03:23;4.88;;;0.90;;
48552;SDS011;34335;51.566;6.994;2022-08-21T11:05:55;2.65;;;0.88;;
48552;SDS011;34335;51.566;6.994;2022-08-21T11:08:31;1.92;;;0.73;;
48552;SDS011;34335;51.566;6.994;2022-08-21T11:13:44;4.50;;;1.00;;
48552;SDS011;34335;51.566;6.994;2022-08-21T11:19:07;3.85;;;1.30;;
48552;SDS011;34335;51.566;6.994;2022-08-21T11:29:37;3.13;;;0.70;;
48552;SDS011;34335;51.566;6.994;2022-08-21T11:35:04;4.88;;;1.45;;
48552;SDS011;34335;51.566;6.994;2022-08-21T11:43:22;6.30;;;2.03;;
48552;SDS011;34335;51.566;6.994;2022-08-21T11:46:02;3.08;;;1.00;;
48552;SDS011;34335;51.566;6.994;2022-08-21T11:54:31;4.63;;;1.45;;
48552;SDS011;34335;51.566;6.994;2022-08-21T11:57:20;4.22;;;1.15;;
48552;SDS011;34335;51.566;6.994;2022-08-21T12:02:52;3.58;;;1.38;;
48552;SDS011;34335;51.566;6.994;2022-08-21T12:05:27;3.28;;;1.23;;
48552;SDS011;34335;51.566;6.994;2022-08-21T12:08:26;2.92;;;1.00;;
48552;SDS011;34335;51.566;6.994;2022-08-21T12:13:52;3.88;;;1.40;;
48552;SDS011;34335;51.566;6.994;2022-08-21T12:16:45;3.20;;;0.95;;
48552;SDS011;34335;51.566;6.994;2022-08-21T12:19:27;6.20;;;1.25;;
48552;SDS011;34335;51.566;6.994;2022-08-21T12:21:58;2.58;;;0.90;;
48552;SDS011;34335;51.566;6.994;2022-08-21T12:24:35;3.60;;;1.27;;
48552;SDS011;34335;51.566;6.994;2022-08-21T12:27:18;4.65;;;1.13;;
48552;SDS011;34335;51.566;6.994;2022-08-21T12:29:54;3.50;;;1.00;;
48552;SDS011;34335;51.566;6.994;2022-08-21T12:32:29;5.18;;;1.17;;
48552;SDS011;34335;51.566;6.994;2022-08-21T12:35:17;2.92;;;0.98;;
48552;SDS011;34335;51.566;6.994;2022-08-21T12:37:47;4.03;;;1.05;;
48552;SDS011;34335;51.566;6.994;2022-08-21T12:40:31;5.70;;;1.40;;
48552;SDS011;34335;51.566;6.994;2022-08-21T12:43:03;3.42;;;0.60;;
48552;SDS011;34335;51.566;6.994;2022-08-21T12:45:43;4.88;;;1.42;;
48552;SDS011;34335;51.566;6.994;2022-08-21T12:48:12;1.73;;;0.73;;
48552;SDS011;34335;51.566;6.994;2022-08-21T12:50:44;4.00;;;1.33;;
48552;SDS011;34335;51.566;6.994;2022-08-21T12:53:16;3.70;;;0.93;;
48552;SDS011;34335;51.566;6.994;2022-08-21T12:55:51;3.33;;;1.10;;
48552;SDS011;34335;51.566;6.994;2022-08-21T12:58:19;3.60;;;1.05;;
48552;SDS011;34335;51.566;6.994;2022-08-21T13:00:56;2.97;;;0.82;;
48552;SDS011;34335;51.566;6.994;2022-08-21T13:03:35;2.60;;;0.82;;
48552;SDS011;34335;51.566;6.994;2022-08-21T13:06:03;3.55;;;1.42;;
48552;SDS011;34335;51.566;6.994;2022-08-21T13:08:29;2.08;;;0.70;;
48552;SDS011;34335;51.566;6.994;2022-08-21T13:11:04;2.22;;;0.75;;
48552;SDS011;34335;51.566;6.994;2022-08-21T13:13:31;3.42;;;1.30;;
48552;SDS011;34335;51.566;6.994;2022-08-21T13:15:58;2.53;;;0.88;;
48552;SDS011;34335;51.566;6.994;2022-08-21T13:18:28;3.10;;;1.02;;
48552;SDS011;34335;51.566;6.994;2022-08-21T13:21:55;3.92;;;0.88;;
48552;SDS011;34335;51.566;6.994;2022-08-21T13:26:46;3.85;;;1.02;;
48552;SDS011;34335;51.566;6.994;2022-08-21T13:29:12;5.05;;;1.30;;
48552;SDS011;34335;51.566;6.994;2022-08-21T13:31:40;3.70;;;1.08;;
48552;SDS011;34335;51.566;6.994;2022-08-21T13:34:11;2.55;;;0.95;;
48552;SDS011;34335;51.566;6.994;2022-08-21T13:36:39;3.28;;;1.25;;
48552;SDS011;34335;51.566;6.994;2022-08-21T13:39:08;3.08;;;0.98;;
48552;SDS011;34335;51.566;6.994;2022-08-21T13:41:36;2.83;;;1.25;;
48552;SDS011;34335;51.566;6.994;2022-08-21T13:46:51;3.08;;;1.17;;
48552;SDS011;34335;51.566;6.994;2022-08-21T13:49:18;3.17;;;0.88;;
48552;SDS011;34335;51.566;6.994;2022-08-21T13:51:46;3.15;;;1.10;;
48552;SDS011;34335;51.566;6.994;2022-08-21T13:54:14;4.05;;;1.10;;
48552;SDS011;34335;51.566;6.994;2022-08-21T13:56:52;4.93;;;1.27;;
48552;SDS011;34335;51.566;6.994;2022-08-21T13:59:28;3.72;;;1.30;;
48552;SDS011;34335;51.566;6.994;2022-08-21T14:05:01;5.28;;;1.10;;
48552;SDS011;34335;51.566;6.994;2022-08-21T14:07:28;11.02;;;2.70;;
48552;SDS011;34335;51.566;6.994;2022-08-21T14:10:00;5.68;;;1.60;;
48552;SDS011;34335;51.566;6.994;2022-08-21T14:12:32;7.63;;;3.40;;
48552;SDS011;34335;51.566;6.994;2022-08-21T14:15:05;3.75;;;1.23;;
48552;SDS011;34335;51.566;6.994;2022-08-21T14:17:34;3.95;;;1.08;;
48552;SDS011;34335;51.566;6.994;2022-08-21T14:20:03;2.45;;;1.13;;
48552;SDS011;34335;51.566;6.994;2022-08-21T14:22:32;2.85;;;0.85;;
48552;SDS011;34335;51.566;6.994;2022-08-21T14:25:04;4.30;;;0.85;;
48552;SDS011;34335;51.566;6.994;2022-08-21T14:27:32;3.05;;;0.98;;
48552;SDS011;34335;51.566;6.994;2022-08-21T14:30:09;4.03;;;1.00;;
48552;SDS011;34335;51.566;6.994;2022-08-21T14:32:42;4.60;;;1.05;;
48552;SDS011;34335;51.566;6.994;2022-08-21T14:35:07;1.15;;;0.60;;
48552;SDS011;34335;51.566;6.994;2022-08-21T14:37:33;2.55;;;1.00;;
48552;SDS011;34335;51.566;6.994;2022-08-21T14:39:59;2.58;;;1.40;;
48552;SDS011;34335;51.566;6.994;2022-08-21T14:42:24;4.83;;;1.20;;
48552;SDS011;34335;51.566;6.994;2022-08-21T14:44:50;4.15;;;0.90;;
48552;SDS011;34335;51.566;6.994;2022-08-21T14:47:17;2.47;;;0.80;;
48552;SDS011;34335;51.566;6.994;2022-08-21T14:49:42;4.13;;;0.93;;
48552;SDS011;34335;51.566;6.994;2022-08-21T14:52:08;4.35;;;1.23;;
48552;SDS011;34335;51.566;6.994;2022-08-21T14:54:34;6.20;;;1.05;;
48552;SDS011;34335;51.566;6.994;2022-08-21T14:57:06;4.47;;;1.17;;
48552;SDS011;34335;51.566;6.994;2022-08-21T14:59:35;3.70;;;1.00;;
48552;SDS011;34335;51.566;6.994;2022-08-21T15:02:02;2.55;;;0.90;;
48552;SDS011;34335;51.566;6.994;2022-08-21T15:04:31;3.33;;;0.90;;
48552;SDS011;34335;51.566;6.994;2022-08-21T15:06:57;2.58;;;0.80;;
48552;SDS011;34335;51.566;6.994;2022-08-21T15:09:23;2.53;;;0.90;;
48552;SDS011;34335;51.566;6.994;2022-08-21T15:11:49;3.95;;;0.90;;
48552;SDS011;34335;51.566;6.994;2022-08-21T15:14:20;5.43;;;1.17;;
48552;SDS011;34335;51.566;6.994;2022-08-21T15:16:49;6.45;;;1.00;;
48552;SDS011;34335;51.566;6.994;2022-08-21T15:19:15;1.60;;;0.70;;
48552;SDS011;34335;51.566;6.994;2022-08-21T15:21:41;3.92;;;0.88;;
48552;SDS011;34335;51.566;6.994;2022-08-21T15:24:06;3.00;;;1.40;;
48552;SDS011;34335;51.566;6.994;2022-08-21T15:26:32;5.25;;;1.13;;
48552;SDS011;34335;51.566;6.994;2022-08-21T15:28:58;5.90;;;1.10;;
48552;SDS011;34335;51.566;6.994;2022-08-21T15:31:24;2.70;;;0.82;;
48552;SDS011;34335;51.566;6.994;2022-08-21T15:33:50;3.33;;;0.98;;
48552;SDS011;34335;51.566;6.994;2022-08-21T15:36:16;5.60;;;1.30;;
48552;SDS011;34335;51.566;6.994;2022-08-21T15:38:41;4.60;;;1.20;;
48552;SDS011;34335;51.566;6.994;2022-08-21T15:41:08;4.43;;;1.35;;
48552;SDS011;34335;51.566;6.994;2022-08-21T15:43:38;3.97;;;1.17;;
48552;SDS011;34335;51.566;6.994;2022-08-21T15:46:08;2.80;;;0.93;;
48552;SDS011;34335;51.566;6.994;2022-08-21T15:48:37;4.20;;;0.90;;
48552;SDS011;34335;51.566;6.994;2022-08-21T15:51:02;2.87;;;1.07;;
48552;SDS011;34335;51.566;6.994;2022-08-21T15:53:27;2.77;;;1.00;;
48552;SDS011;34335;51.566;6.994;2022-08-21T15:55:53;4.27;;;0.90;;
48552;SDS011;34335;51.566;6.994;2022-08-21T15:58:19;7.30;;;1.38;;
48552;SDS011;34335;51.566;6.994;2022-08-21T16:00:45;4.45;;;1.00;;
48552;SDS011;34335;51.566;6.994;2022-08-21T16:03:12;2.60;;;1.02;;
48552;SDS011;34335;51.566;6.994;2022-08-21T16:05:41;4.85;;;1.10;;
48552;SDS011;34335;51.566;6.994;2022-08-21T16:08:07;4.78;;;0.90;;
48552;SDS011;34335;51.566;6.994;2022-08-21T16:10:34;7.50;;;1.50;;
48552;SDS011;34335;51.566;6.994;2022-08-21T16:13:04;2.97;;;0.90;;
48552;SDS011;34335;51.566;6.994;2022-08-21T16:15:32;3.15;;;1.25;;
48552;SDS011;34335;51.566;6.994;2022-08-21T16:17:57;2.83;;;0.87;;
48552;SDS011;34335;51.566;6.994;2022-08-21T16:20:25;3.60;;;0.80;;